Time;durP1;ratioP1;P1;durP2;ratioP2;P2;SDS_P1;SDS_P2;PMS_P1;PMS_P2;Temp;Humidity;BMP_temperature;BMP_pressure;BME280_temperature;BME280_humidity;BME280_pressure;Samples;Min_cycle;Max_cycle;Signal;HPM_P1;HPM_P2
2022/12/24 14:21:00;;;;;;;0.10;0.10;;;;;;;;;;5133528;27;20877;-81
2022/12/24 14:23:44;;;;;;;0.10;0.10;;;;;;;;;;5105073;27;20482;-86
2022/12/24 14:26:12;;;;;;;0.10;0.10;;;;;;;;;;5122311;27;20110;-85
2022/12/24 14:28:41;;;;;;;1.75;1.35;;;;;;;;;;5119167;27;20542;-90
2022/12/24 14:31:13;;;;;;;0.10;0.10;;;;;;;;;;5104917;27;20083;-85
2022/12/24 14:33:39;;;;;;;0.10;0.10;;;;;;;;;;5117911;27;20063;-88
2022/12/24 15:05:06;;;;;;;0.10;0.10;;;;;;;;;;5039210;28;20454;-80
2022/12/24 15:07:34;;;;;;;0.10;0.10;;;;;;;;;;5001542;28;20132;-85
2022/12/24 15:10:01;;;;;;;0.10;0.10;;;;;;;;;;5015994;28;20475;-79
2022/12/24 15:12:27;;;;;;;0.10;0.10;;;;;;;;;;4996850;28;20559;-83
2022/12/24 15:14:53;;;;;;;0.30;0.30;;;;;;;;;;5019924;28;20052;-89
2022/12/24 15:17:20;;;;;;;1.30;1.27;;;;;;;;;;5005549;28;20048;-82
2022/12/24 15:19:49;;;;;;;1.55;1.45;;;;;;;;;;5016285;28;20045;-82
2022/12/24 15:22:25;;;;;;;0.10;0.10;;;;;;;;;;5013741;28;20095;-80
2022/12/24 15:24:52;;;;;;;0.00;0.00;;;;;;;;;;5002111;28;20045;-88
2022/12/24 15:27:19;;;;;;;0.10;0.10;;;;;;;;;;5014483;28;20045;-82
2022/12/24 15:29:47;;;;;;;0.10;0.10;;;;;;;;;;5015111;28;20985;-82
2022/12/24 15:32:14;;;;;;;0.10;0.10;;;;;;;;;;5028271;28;20160;-81
2022/12/24 15:34:40;;;;;;;0.10;0.10;;;;;;;;;;5011792;28;20069;-80
2022/12/24 15:37:06;;;;;;;0.10;0.10;;;;;;;;;;5009771;28;20578;-79
2022/12/24 15:39:32;;;;;;;0.10;0.10;;;;;;;;;;5020086;28;20052;-83
2022/12/24 15:42:14;;;;;;;0.10;0.10;;;;;;;;;;5012714;28;21434;-80
2022/12/24 15:44:42;;;;;;;0.10;0.10;;;;;;;;;;5037532;28;20033;-83
2022/12/24 15:47:13;;;;;;;0.10;0.10;;;;;;;;;;5004828;28;20783;-82
2022/12/24 15:49:40;;;;;;;0.10;0.10;;;;;;;;;;5015471;28;20040;-78
2022/12/24 15:52:07;;;;;;;0.10;0.10;;;;;;;;;;5029760;28;20111;-78
2022/12/24 15:54:34;;;;;;;0.10;0.10;;;;;;;;;;5035608;28;20045;-80
2022/12/24 15:57:11;;;;;;;0.20;0.20;;;;;;;;;;5038604;28;20041;-90
2022/12/24 15:59:37;;;;;;;0.10;0.10;;;;;;;;;;5029809;28;20041;-87
2022/12/24 16:02:21;;;;;;;0.10;0.10;;;;;;;;;;5031602;28;20160;-83
2022/12/24 16:04:47;;;;;;;0.10;0.10;;;;;;;;;;4995557;28;20054;-89
2022/12/24 16:07:24;;;;;;;0.10;0.10;;;;;;;;;;4982225;28;20403;-84
2022/12/24 16:09:50;;;;;;;0.10;0.10;;;;;;;;;;4989647;28;20049;-91
2022/12/24 16:12:16;;;;;;;0.10;0.10;;;;;;;;;;4973861;28;20091;-91
2022/12/24 16:14:47;;;;;;;0.10;0.10;;;;;;;;;;4969407;28;20842;-86
2022/12/24 16:17:21;;;;;;;0.10;0.10;;;;;;;;;;4965012;28;20107;-83
2022/12/24 16:19:49;;;;;;;0.30;0.30;;;;;;;;;;4979666;28;20038;-84
2022/12/24 16:22:38;;;;;;;0.10;0.10;;;;;;;;;;4987170;28;20041;-88
2022/12/24 16:25:22;;;;;;;0.10;0.10;;;;;;;;;;4969597;28;20057;-92
2022/12/24 16:27:51;;;;;;;0.10;0.10;;;;;;;;;;4981652;28;20038;-89
2022/12/24 16:30:18;;;;;;;0.10;0.10;;;;;;;;;;4982038;28;20485;-90
2022/12/24 16:32:44;;;;;;;0.10;0.10;;;;;;;;;;4974731;28;20176;-87
2022/12/24 16:35:19;;;;;;;0.10;0.10;;;;;;;;;;4984154;28;20042;-86
2022/12/24 16:37:45;;;;;;;0.10;0.10;;;;;;;;;;4982233;28;20045;-87
2022/12/24 16:40:13;;;;;;;0.15;0.15;;;;;;;;;;4982068;28;20045;-85
2022/12/24 16:45:24;;;;;;;0.10;0.10;;;;;;;;;;5002318;28;20045;-86
2022/12/24 16:47:50;;;;;;;0.13;0.13;;;;;;;;;;4962893;28;20057;-83
2022/12/24 16:50:17;;;;;;;0.15;0.15;;;;;;;;;;5001555;28;20057;-84
2022/12/24 16:52:44;;;;;;;0.10;0.10;;;;;;;;;;5002128;28;20041;-86
2022/12/24 16:55:12;;;;;;;0.10;0.10;;;;;;;;;;4980210;28;20046;-82
2022/12/24 16:57:41;;;;;;;0.10;0.10;;;;;;;;;;4980397;28;20046;-85
2022/12/24 17:00:08;;;;;;;0.10;0.10;;;;;;;;;;4963770;28;20049;-81
2022/12/24 17:02:34;;;;;;;0.20;0.20;;;;;;;;;;4993725;28;20410;-82
2022/12/24 17:05:00;;;;;;;0.10;0.10;;;;;;;;;;5017629;28;20061;-78
2022/12/24 17:07:26;;;;;;;0.10;0.10;;;;;;;;;;5014616;28;20049;-84
2022/12/24 17:09:52;;;;;;;0.10;0.10;;;;;;;;;;4982520;28;20041;-82
2022/12/24 17:12:20;;;;;;;0.10;0.10;;;;;;;;;;4994427;28;20508;-81
2022/12/24 17:14:46;;;;;;;0.10;0.10;;;;;;;;;;4998148;28;20340;-88
2022/12/24 17:17:23;;;;;;;0.10;0.10;;;;;;;;;;4997554;28;20090;-89
2022/12/24 17:19:49;;;;;;;7.55;5.05;;;;;;;;;;4999288;28;20041;-83
2022/12/24 17:22:15;;;;;;;92.18;24.50;;;;;;;;;;5000036;28;20068;-85
2022/12/24 17:24:41;;;;;;;0.10;0.10;;;;;;;;;;5000201;28;21457;-82
2022/12/24 17:27:07;;;;;;;0.10;0.10;;;;;;;;;;4999445;28;20131;-80
2022/12/24 17:29:33;;;;;;;0.10;0.10;;;;;;;;;;4999450;28;20555;-82
2022/12/24 17:32:00;;;;;;;0.10;0.10;;;;;;;;;;4996742;28;20037;-81
2022/12/24 17:34:26;;;;;;;0.10;0.10;;;;;;;;;;4997247;28;20489;-81
2022/12/24 17:36:52;;;;;;;0.10;0.10;;;;;;;;;;5019663;28;20435;-89
2022/12/24 17:39:18;;;;;;;9.32;4.32;;;;;;;;;;5000635;28;20079;-86
2022/12/24 17:41:46;;;;;;;0.10;0.10;;;;;;;;;;5002549;28;20033;-86
2022/12/24 17:44:15;;;;;;;0.10;0.10;;;;;;;;;;5000909;28;20092;-84
2022/12/24 17:46:42;;;;;;;0.40;0.40;;;;;;;;;;4981906;28;20041;-90
2022/12/24 17:49:08;;;;;;;0.10;0.10;;;;;;;;;;5002329;28;20072;-86
